createdAt,value
2022-08-12T00:01:12.316Z,101165.91
2022-08-12T00:03:58.175Z,101166.97
2022-08-12T00:06:44.503Z,101164.06
2022-08-12T00:09:29.905Z,101167.03
2022-08-12T00:12:15.038Z,101156.78
2022-08-12T00:15:03.247Z,101153.19
2022-08-12T00:17:49.039Z,101156.41
2022-08-12T00:20:35.053Z,101157.94
2022-08-12T00:23:20.943Z,101162.22
2022-08-12T00:26:23.448Z,101166.03
2022-08-12T00:29:13.359Z,101160.19
2022-08-12T00:32:01.531Z,101160.88
2022-08-12T00:34:49.680Z,101159.88
2022-08-12T00:37:40.205Z,101161.38
2022-08-12T00:40:29.793Z,101159.50
2022-08-12T00:42:58.533Z,101158.69
2022-08-12T00:45:26.002Z,101153.59
2022-08-12T00:47:54.246Z,101156.22
2022-08-12T00:50:23.241Z,101151.75
2022-08-12T00:52:52.955Z,101159.22
2022-08-12T00:55:21.566Z,101157.97
2022-08-12T00:57:50.839Z,101159.06
2022-08-12T01:00:24.353Z,101162.91
2022-08-12T01:02:57.684Z,101162.31
2022-08-12T01:05:45.325Z,101157.03
2022-08-12T01:08:30.937Z,101159.34
2022-08-12T01:11:16.454Z,101158.41
2022-08-12T01:13:50.430Z,101152.47
2022-08-12T01:16:22.887Z,101149.97
2022-08-12T01:18:54.401Z,101148.28
2022-08-12T01:21:27.457Z,101155.31
2022-08-12T01:24:31.058Z,101152.56
2022-08-12T01:27:01.519Z,101142.25
2022-08-12T01:29:34.722Z,101145.41
2022-08-12T01:32:08.883Z,101143.97
2022-08-12T01:34:40.355Z,101147.78
2022-08-12T01:37:09.898Z,101152.03
2022-08-12T01:40:34.148Z,101149.31
2022-08-12T01:42:47.709Z,101144.91
2022-08-12T01:45:18.318Z,101136.91
2022-08-12T01:48:16.773Z,101139.44
2022-08-12T01:51:40.746Z,101143.25
2022-08-12T01:54:14.185Z,101140.28
2022-08-12T01:56:56.502Z,101126.75
2022-08-12T01:59:56.572Z,101123.19
2022-08-12T02:02:41.148Z,101119.81
2022-08-12T02:06:08.457Z,101126.16
2022-08-12T02:09:20.644Z,101121.50
2022-08-12T02:11:53.817Z,101118.75
2022-08-12T02:14:48.460Z,101112.69
2022-08-12T02:17:57.103Z,101108.06
2022-08-12T02:20:53.380Z,101099.81
2022-08-12T02:23:28.338Z,101106.56
2022-08-12T02:25:59.691Z,101109.50
2022-08-12T02:28:27.332Z,101111.00
2022-08-12T02:30:55.619Z,101108.69
2022-08-12T02:33:23.333Z,101115.00
2022-08-12T02:35:51.718Z,101124.31
2022-08-12T02:38:21.928Z,101115.44
2022-08-12T02:40:53.196Z,101124.75
2022-08-12T02:43:34.853Z,101109.72
2022-08-12T02:46:15.048Z,101110.19
2022-08-12T02:49:33.366Z,101115.88
2022-08-12T02:52:01.176Z,101116.09
2022-08-12T02:54:28.275Z,101111.63
2022-08-12T02:56:55.265Z,101108.69
2022-08-12T02:59:25.129Z,101112.50
2022-08-12T03:02:14.998Z,101108.44
2022-08-12T03:04:50.309Z,101110.75
2022-08-12T03:07:56.487Z,101116.66
2022-08-12T03:10:37.104Z,101102.94
2022-08-12T03:13:07.852Z,101106.72
2022-08-12T03:15:39.017Z,101106.09
2022-08-12T03:18:28.337Z,101107.34
2022-08-12T03:20:59.071Z,101106.31
2022-08-12T03:23:31.085Z,101102.25
2022-08-12T03:26:01.988Z,101098.25
2022-08-12T03:28:51.231Z,101104.56
2022-08-12T03:31:32.427Z,101094.66
2022-08-12T03:34:09.180Z,101096.31
2022-08-12T03:36:39.275Z,101103.06
2022-08-12T03:39:35.423Z,101100.53
2022-08-12T03:42:41.691Z,101100.09
2022-08-12T03:45:51.923Z,101093.16
2022-08-12T03:48:39.466Z,101101.38
2022-08-12T03:51:25.237Z,101103.22
2022-08-12T03:54:11.763Z,101107.44
2022-08-12T03:56:58.452Z,101098.78
2022-08-12T03:59:44.340Z,101100.66
2022-08-12T04:02:17.857Z,101100.78
2022-08-12T04:04:49.276Z,101103.13
2022-08-12T04:07:16.898Z,101105.44
2022-08-12T04:09:46.876Z,101119.31
2022-08-12T04:12:33.590Z,101107.09
2022-08-12T04:15:01.800Z,101105.97
2022-08-12T04:17:29.153Z,101112.50
2022-08-12T04:19:58.311Z,101117.34
2022-08-12T04:22:30.021Z,101122.81
2022-08-12T04:25:02.080Z,101115.00
2022-08-12T04:27:32.276Z,101110.56
2022-08-12T04:30:31.512Z,101117.50
2022-08-12T04:32:51.033Z,101110.72
2022-08-12T04:35:19.026Z,101117.66
2022-08-12T04:37:58.648Z,101118.31
2022-08-12T04:40:31.385Z,101110.91
2022-08-12T04:43:01.510Z,101116.31
2022-08-12T04:45:29.361Z,101118.22
2022-08-12T04:47:56.806Z,101113.59
2022-08-12T04:50:27.189Z,101119.88
2022-08-12T04:53:08.120Z,101111.22
2022-08-12T04:55:39.189Z,101110.56
2022-08-12T04:58:10.441Z,101112.28
2022-08-12T05:00:38.465Z,101121.91
2022-08-12T05:03:07.208Z,101121.06
2022-08-12T05:05:36.539Z,101125.50
2022-08-12T05:08:04.927Z,101125.69
2022-08-12T05:10:33.721Z,101126.72
2022-08-12T05:13:11.220Z,101126.53
2022-08-12T05:16:02.564Z,101119.06
2022-08-12T05:18:29.693Z,101125.25
2022-08-12T05:20:59.377Z,101129.25
2022-08-12T05:23:27.350Z,101128.81
2022-08-12T05:25:57.889Z,101135.56
2022-08-12T05:28:27.594Z,101132.06
2022-08-12T05:30:55.838Z,101136.19
2022-08-12T05:33:26.789Z,101133.53
2022-08-12T05:35:53.790Z,101126.94
2022-08-12T05:38:39.477Z,101130.91
2022-08-12T05:41:19.179Z,101129.31
2022-08-12T05:43:58.223Z,101131.88
2022-08-12T05:46:27.849Z,101129.59
2022-08-12T05:48:56.523Z,101134.81
2022-08-12T05:51:40.690Z,101131.09
2022-08-12T05:54:09.636Z,101138.72
2022-08-12T05:56:37.182Z,101131.69
2022-08-12T05:59:09.457Z,101128.75
2022-08-12T06:02:08.743Z,101133.50
2022-08-12T06:04:23.969Z,101134.09
2022-08-12T06:06:53.677Z,101125.25
2022-08-12T06:09:22.853Z,101134.66
2022-08-12T06:12:04.541Z,101132.97
2022-08-12T06:14:36.902Z,101126.63
2022-08-12T06:17:05.721Z,101125.78
2022-08-12T06:20:22.899Z,101127.19
2022-08-12T06:22:19.724Z,101126.72
2022-08-12T06:24:48.629Z,101125.63
2022-08-12T06:27:19.122Z,101123.34
2022-08-12T06:30:08.634Z,101126.84
2022-08-12T06:32:34.643Z,101123.63
2022-08-12T06:35:26.610Z,101111.50
2022-08-12T06:37:56.818Z,101119.91
2022-08-12T06:41:04.167Z,101125.38
2022-08-12T06:44:06.248Z,101117.25
2022-08-12T06:46:22.391Z,101118.44
2022-08-12T06:48:56.939Z,101120.03
2022-08-12T06:51:25.494Z,101126.91
2022-08-12T06:53:52.531Z,101127.69
2022-08-12T06:56:19.600Z,101131.34
2022-08-12T06:58:46.696Z,101132.31
2022-08-12T07:01:13.660Z,101135.78
2022-08-12T07:03:40.937Z,101136.69
2022-08-12T07:06:13.730Z,101128.94
2022-08-12T07:08:42.428Z,101130.56
2022-08-12T07:11:12.188Z,101128.94
2022-08-12T07:14:12.631Z,101123.97
2022-08-12T07:16:51.782Z,101122.34
2022-08-12T07:19:19.823Z,101122.25
2022-08-12T07:21:59.815Z,101121.28
2022-08-12T07:24:30.682Z,101107.16
2022-08-12T07:26:57.565Z,101112.69
2022-08-12T07:29:57.856Z,101112.19
2022-08-12T07:32:13.511Z,101108.53
2022-08-12T07:34:43.513Z,101108.94
2022-08-12T07:37:10.916Z,101114.28
2022-08-12T07:39:51.381Z,101112.84
2022-08-12T07:42:24.547Z,101106.53
2022-08-12T07:44:53.753Z,101111.34
2022-08-12T07:47:20.644Z,101098.00
2022-08-12T07:50:04.220Z,101107.31
2022-08-12T07:52:42.862Z,101108.47
2022-08-12T07:55:11.394Z,101109.97
2022-08-12T07:57:59.475Z,101114.75
2022-08-12T08:00:34.482Z,101108.19
2022-08-12T08:03:01.733Z,101105.53
2022-08-12T08:05:46.465Z,101104.50
2022-08-12T08:08:22.678Z,101102.88
2022-08-12T08:10:53.589Z,101102.38
2022-08-12T08:13:20.707Z,101105.16
2022-08-12T08:16:03.963Z,101096.00
2022-08-12T08:18:31.478Z,101103.59
2022-08-12T08:20:58.304Z,101099.16
2022-08-12T08:23:46.447Z,101098.34
2022-08-12T08:26:15.749Z,101092.25
2022-08-12T08:28:43.844Z,101101.47
2022-08-12T08:31:14.421Z,101095.63
2022-08-12T08:34:05.437Z,101099.53
2022-08-12T08:36:29.483Z,101102.34
2022-08-12T08:38:58.229Z,101093.44
2022-08-12T08:42:17.736Z,101090.13
2022-08-12T08:44:39.643Z,101086.78
2022-08-12T08:47:09.397Z,101086.25
2022-08-12T08:49:37.355Z,101084.03
2022-08-12T08:52:06.648Z,101087.09
2022-08-12T08:54:34.104Z,101080.13
2022-08-12T08:57:02.703Z,101085.13
2022-08-12T08:59:29.673Z,101078.16
2022-08-12T09:01:57.125Z,101075.09
2022-08-12T09:05:11.708Z,101076.75
2022-08-12T09:07:16.708Z,101070.34
2022-08-12T09:10:02.272Z,101068.06
2022-08-12T09:12:55.145Z,101069.75
2022-08-12T09:15:35.490Z,101064.72
2022-08-12T09:18:08.818Z,101068.03
2022-08-12T09:20:40.301Z,101064.13
2022-08-12T09:24:00.370Z,101077.50
2022-08-12T09:26:04.071Z,101064.69
2022-08-12T09:28:34.525Z,101071.09
2022-08-12T09:32:07.060Z,101064.44
2022-08-12T09:34:25.569Z,101066.34
2022-08-12T09:36:57.584Z,101068.03
2022-08-12T09:40:06.364Z,101072.47
2022-08-12T09:42:43.409Z,101069.13
2022-08-12T09:45:24.635Z,101062.72
2022-08-12T09:48:22.328Z,101068.88
2022-08-12T09:50:51.643Z,101068.31
2022-08-12T09:53:36.378Z,101074.19
2022-08-12T09:57:00.870Z,101061.91
2022-08-12T09:59:01.906Z,101058.53
2022-08-12T10:01:34.714Z,101054.63
2022-08-12T10:04:19.910Z,101059.34
2022-08-12T10:06:55.456Z,101057.41
2022-08-12T10:09:28.493Z,101059.88
2022-08-12T10:12:33.445Z,101058.78
2022-08-12T10:15:03.994Z,101043.13
2022-08-12T10:17:33.310Z,101041.69
2022-08-12T10:22:39.179Z,101041.34
2022-08-12T10:26:34.135Z,101044.97
2022-08-12T10:28:33.477Z,101034.84
2022-08-12T10:31:01.316Z,101029.00
2022-08-12T10:33:32.109Z,101030.91
2022-08-12T10:36:02.089Z,101022.50
2022-08-12T10:38:36.135Z,101018.00
2022-08-12T10:41:57.775Z,101008.44
2022-08-12T10:44:16.874Z,101013.44
2022-08-12T10:46:49.300Z,101007.78
2022-08-12T10:50:03.009Z,101017.25
2022-08-12T10:52:33.042Z,101006.09
2022-08-12T10:54:56.235Z,101003.22
2022-08-12T10:57:50.354Z,101014.41
2022-08-12T11:00:34.945Z,101003.50
2022-08-12T11:04:26.951Z,101000.41
2022-08-12T11:07:07.812Z,100997.53
2022-08-12T11:08:43.035Z,100986.84
2022-08-12T11:12:07.565Z,100992.97
2022-08-12T11:14:05.986Z,100985.38
2022-08-12T11:16:40.158Z,100982.28
2022-08-12T11:19:29.202Z,100970.53
2022-08-12T11:22:02.938Z,100973.81
2022-08-12T11:24:32.273Z,100977.06
2022-08-12T11:27:07.897Z,100974.44
2022-08-12T11:30:06.156Z,100969.00
2022-08-12T11:32:25.029Z,100974.53
2022-08-12T11:34:54.788Z,100972.25
2022-08-12T11:37:25.436Z,100960.19
2022-08-12T11:42:43.769Z,100952.75
2022-08-12T11:45:16.916Z,100951.66
2022-08-12T11:47:44.842Z,100947.94
2022-08-12T11:50:18.922Z,100943.78
2022-08-12T11:52:55.756Z,100950.72
2022-08-12T11:55:25.587Z,100942.56
2022-08-12T11:58:40.445Z,100940.00
2022-08-12T12:03:43.643Z,100934.66
2022-08-12T12:06:15.423Z,100929.75
2022-08-12T12:08:50.389Z,100922.63
2022-08-12T12:11:19.082Z,100923.06
2022-08-12T12:14:06.696Z,100927.44
2022-08-12T12:16:37.984Z,100918.09
2022-08-12T12:19:10.440Z,100914.91
2022-08-12T12:21:48.291Z,100916.50
2022-08-12T12:24:21.613Z,100907.22
2022-08-12T12:26:59.819Z,100905.75
2022-08-12T12:30:17.962Z,100907.31
2022-08-12T12:32:16.613Z,100898.00
2022-08-12T12:35:13.741Z,100909.50
2022-08-12T12:38:03.848Z,100904.41
2022-08-12T12:40:17.719Z,100897.56
2022-08-12T12:42:57.812Z,100887.94
2022-08-12T12:45:33.325Z,100887.22
2022-08-12T12:48:14.152Z,100887.72
2022-08-12T12:51:13.186Z,100884.72
2022-08-12T12:54:08.095Z,100876.50
2022-08-12T12:56:34.604Z,100872.47
2022-08-12T12:59:06.364Z,100872.97
2022-08-12T13:01:38.412Z,100859.91
2022-08-12T13:04:12.184Z,100866.34
2022-08-12T13:06:42.120Z,100871.34
2022-08-12T13:09:13.229Z,100860.63
2022-08-12T13:11:42.065Z,100858.28
2022-08-12T13:14:28.607Z,100862.22
2022-08-12T13:17:02.638Z,100861.91
2022-08-12T13:19:44.472Z,100856.59
2022-08-12T13:22:23.410Z,100856.72
2022-08-12T13:24:56.013Z,100868.13
2022-08-12T13:27:41.574Z,100855.75
2022-08-12T13:30:20.624Z,100852.13
2022-08-12T13:32:57.562Z,100851.81
2022-08-12T13:36:04.960Z,100841.00
2022-08-12T13:38:41.097Z,100839.94
2022-08-12T13:41:33.136Z,100839.69
2022-08-12T13:44:02.122Z,100834.50
2022-08-12T13:46:28.959Z,100838.44
2022-08-12T13:48:56.673Z,100837.09
2022-08-12T13:51:25.144Z,100829.94
2022-08-12T13:54:13.957Z,100829.09
2022-08-12T13:56:41.339Z,100838.06
2022-08-12T13:59:18.539Z,100832.09
2022-08-12T14:01:52.013Z,100831.47
2022-08-12T14:04:19.402Z,100826.84
2022-08-12T14:06:50.930Z,100814.53
2022-08-12T14:09:19.959Z,100823.78
2022-08-12T14:11:58.329Z,100821.78
2022-08-12T14:14:27.352Z,100821.59
2022-08-12T14:16:54.162Z,100820.97
2022-08-12T14:19:24.466Z,100816.84
2022-08-12T14:21:59.615Z,100812.78
2022-08-12T14:24:40.593Z,100803.09
2022-08-12T14:27:10.916Z,100805.47
2022-08-12T14:30:05.107Z,100805.78
2022-08-12T14:32:35.248Z,100792.25
2022-08-12T14:35:09.221Z,100796.19
2022-08-12T14:37:57.957Z,100794.75
2022-08-12T14:40:30.122Z,100795.81
2022-08-12T14:42:59.297Z,100796.56
2022-08-12T14:45:44.390Z,100790.75
2022-08-12T14:48:16.308Z,100790.97
2022-08-12T14:51:03.329Z,100784.34
2022-08-12T14:59:57.420Z,100772.91
2022-08-12T15:02:21.191Z,100770.81
2022-08-12T15:04:59.694Z,100771.50
2022-08-12T15:07:33.609Z,100771.19
2022-08-12T15:10:24.971Z,100768.06
2022-08-12T15:12:52.684Z,100758.78
2022-08-12T15:15:21.660Z,100762.13
2022-08-12T15:17:59.100Z,100762.97
2022-08-12T15:20:33.096Z,100755.34
2022-08-12T15:23:17.966Z,100759.66
2022-08-12T15:25:48.229Z,100754.97
2022-08-12T15:28:22.239Z,100764.75
2022-08-12T15:30:52.392Z,100746.63
2022-08-12T15:33:24.237Z,100746.63
2022-08-12T15:35:54.046Z,100745.44
2022-08-12T15:38:31.512Z,100733.91
2022-08-12T15:41:00.211Z,100737.88
2022-08-12T15:43:51.644Z,100733.72
2022-08-12T15:46:17.458Z,100726.16
2022-08-12T15:48:46.715Z,100730.28
2022-08-12T15:51:59.536Z,100736.59
2022-08-12T15:54:33.990Z,100734.91
2022-08-12T15:57:08.067Z,100731.78
2022-08-12T16:00:00.793Z,100723.19
2022-08-12T16:02:29.747Z,100724.84
2022-08-12T16:04:57.449Z,100716.44
2022-08-12T16:07:29.655Z,100730.97
2022-08-12T16:10:07.066Z,100719.34
2022-08-12T16:12:54.436Z,100722.28
2022-08-12T16:15:26.469Z,100715.03
2022-08-12T16:18:15.175Z,100713.38
2022-08-12T16:20:47.213Z,100717.22
2022-08-12T16:23:26.717Z,100711.72
2022-08-12T16:26:05.603Z,100710.72
2022-08-12T16:28:34.023Z,100711.16
2022-08-12T16:31:02.114Z,100705.34
2022-08-12T16:33:58.767Z,100712.78
2022-08-12T16:36:29.539Z,100706.66
2022-08-12T16:38:57.024Z,100701.03
2022-08-12T16:41:24.273Z,100695.94
2022-08-12T16:43:55.033Z,100695.44
2022-08-12T16:46:32.775Z,100695.00
2022-08-12T16:49:09.050Z,100704.22
2022-08-12T16:51:46.579Z,100699.41
2022-08-12T16:54:17.230Z,100699.09
2022-08-12T16:56:50.953Z,100689.53
2022-08-12T16:59:22.923Z,100683.41
2022-08-12T17:01:51.981Z,100697.59
2022-08-12T17:04:24.297Z,100688.66
2022-08-12T17:06:52.793Z,100688.78
2022-08-12T17:09:19.859Z,100690.41
2022-08-12T17:11:50.391Z,100684.97
2022-08-12T17:14:23.167Z,100692.88
2022-08-12T17:16:55.525Z,100689.56
2022-08-12T17:20:28.716Z,100687.69
2022-08-12T17:22:15.551Z,100681.88
2022-08-12T17:24:54.565Z,100683.16
2022-08-12T17:27:35.151Z,100679.84
2022-08-12T17:30:05.613Z,100675.69
2022-08-12T17:32:37.240Z,100676.94
2022-08-12T17:35:29.951Z,100675.50
2022-08-12T17:38:11.601Z,100673.63
2022-08-12T17:40:39.454Z,100671.78
2022-08-12T17:43:51.843Z,100667.25
2022-08-12T17:45:58.877Z,100675.09
2022-08-12T17:48:34.913Z,100668.94
2022-08-12T17:51:15.380Z,100671.00
2022-08-12T17:54:11.086Z,100672.91
2022-08-12T17:56:37.661Z,100667.81
2022-08-12T17:59:07.534Z,100673.81
2022-08-12T18:01:36.107Z,100667.06
2022-08-12T18:04:22.455Z,100668.53
2022-08-12T18:06:55.861Z,100668.44
2022-08-12T18:09:24.450Z,100676.75
2022-08-12T18:12:11.654Z,100670.94
2022-08-12T18:14:41.305Z,100672.78
2022-08-12T18:17:16.651Z,100670.69
2022-08-12T18:20:05.656Z,100666.63
2022-08-12T18:22:32.723Z,100663.69
2022-08-12T18:25:05.160Z,100670.53
2022-08-12T18:27:44.647Z,100668.41
2022-08-12T18:30:20.982Z,100675.84
2022-08-12T18:33:04.995Z,100668.22
2022-08-12T18:35:47.134Z,100676.38
2022-08-12T18:38:21.772Z,100672.63
2022-08-12T18:41:10.419Z,100681.91
2022-08-12T18:43:59.338Z,100681.47
2022-08-12T18:46:47.518Z,100682.22
2022-08-12T18:49:38.742Z,100688.81
2022-08-12T18:52:11.692Z,100687.53
2022-08-12T18:54:55.735Z,100682.94
2022-08-12T18:58:07.365Z,100688.38
2022-08-12T19:00:22.330Z,100688.47
2022-08-12T19:02:53.021Z,100686.94
2022-08-12T19:05:20.112Z,100687.63
2022-08-12T19:08:00.921Z,100699.47
2022-08-12T19:10:31.805Z,100697.84
2022-08-12T19:13:23.809Z,100688.22
2022-08-12T19:15:57.409Z,100693.63
2022-08-12T19:18:29.298Z,100694.28
2022-08-12T19:20:58.686Z,100697.19
2022-08-12T19:23:35.162Z,100700.28
2022-08-12T19:26:04.776Z,100709.00
2022-08-12T19:28:35.353Z,100702.94
2022-08-12T19:31:55.651Z,100708.63
2022-08-12T19:38:02.806Z,100719.63
2022-08-12T19:40:31.081Z,100720.78
2022-08-12T19:43:18.322Z,100720.03
2022-08-12T19:45:51.573Z,100725.63
2022-08-12T19:48:27.594Z,100733.44
2022-08-12T19:50:57.539Z,100734.84
2022-08-12T19:53:27.625Z,100734.31
2022-08-12T19:55:57.399Z,100741.03
2022-08-12T19:58:25.858Z,100744.09
2022-08-12T20:00:55.459Z,100740.75
2022-08-12T20:03:39.954Z,100747.19
2022-08-12T20:06:15.293Z,100746.63
2022-08-12T20:08:48.603Z,100748.59
2022-08-12T20:12:09.440Z,100749.72
2022-08-12T20:14:07.243Z,100749.69
2022-08-12T20:16:57.791Z,100757.50
2022-08-12T20:19:52.717Z,100755.81
2022-08-12T20:22:24.270Z,100761.34
2022-08-12T20:25:02.145Z,100766.63
2022-08-12T20:28:04.424Z,100764.13
2022-08-12T20:30:37.298Z,100764.66
2022-08-12T20:33:17.378Z,100763.00
2022-08-12T20:36:13.330Z,100767.16
2022-08-12T20:38:38.419Z,100761.53
2022-08-12T20:41:16.578Z,100762.66
2022-08-12T20:43:51.902Z,100762.88
2022-08-12T20:46:20.083Z,100768.41
2022-08-12T20:48:54.973Z,100769.22
2022-08-12T20:51:27.517Z,100772.25
2022-08-12T20:53:58.758Z,100776.69
2022-08-12T20:56:38.193Z,100776.94
2022-08-12T20:59:10.994Z,100783.00
2022-08-12T21:01:47.559Z,100785.44
2022-08-12T21:04:35.733Z,100786.28
2022-08-12T21:07:09.145Z,100793.16
2022-08-12T21:09:44.716Z,100792.28
2022-08-12T21:12:27.833Z,100806.94
2022-08-12T21:15:18.121Z,100800.28
2022-08-12T21:18:09.339Z,100812.41
2022-08-12T21:20:52.877Z,100801.81
2022-08-12T21:23:22.524Z,100806.22
2022-08-12T21:25:51.206Z,100801.22
2022-08-12T21:28:20.945Z,100798.66
2022-08-12T21:31:10.962Z,100802.22
2022-08-12T21:33:58.294Z,100799.66
2022-08-12T21:36:34.221Z,100812.06
2022-08-12T21:39:18.582Z,100805.38
2022-08-12T21:41:51.536Z,100810.38
2022-08-12T21:45:46.457Z,100808.91
2022-08-12T21:47:20.776Z,100805.00
2022-08-12T21:50:06.611Z,100811.06
2022-08-12T21:52:40.835Z,100803.69
2022-08-12T21:55:19.617Z,100802.88
2022-08-12T21:57:54.841Z,100812.53
2022-08-12T22:00:36.981Z,100816.03
2022-08-12T22:04:07.982Z,100819.06
2022-08-12T22:06:31.500Z,100819.78
2022-08-12T22:09:15.380Z,100820.91
2022-08-12T22:11:59.234Z,100815.28
2022-08-12T22:14:29.629Z,100814.66
2022-08-12T22:16:58.393Z,100816.84
2022-08-12T22:19:26.934Z,100820.06
2022-08-12T22:21:56.174Z,100823.03
2022-08-12T22:24:25.679Z,100817.44
2022-08-12T22:26:54.496Z,100824.56
2022-08-12T22:29:40.852Z,100815.06
2022-08-12T22:32:11.930Z,100820.81
2022-08-12T22:34:39.449Z,100829.03
2022-08-12T22:37:11.335Z,100822.34
2022-08-12T22:39:46.481Z,100817.84
2022-08-12T22:42:34.365Z,100820.53
2022-08-12T22:45:24.388Z,100812.72
2022-08-12T22:47:56.115Z,100817.34
2022-08-12T22:50:29.702Z,100818.13
2022-08-12T22:53:17.598Z,100828.59
2022-08-12T22:56:05.538Z,100827.94
2022-08-12T22:58:40.786Z,100822.06
2022-08-12T23:01:11.161Z,100824.75
2022-08-12T23:03:49.620Z,100821.91
2022-08-12T23:06:24.065Z,100824.34
2022-08-12T23:08:54.692Z,100823.16
2022-08-12T23:11:23.878Z,100822.19
2022-08-12T23:14:00.866Z,100816.34
2022-08-12T23:16:33.407Z,100817.34
2022-08-12T23:19:10.626Z,100813.94
2022-08-12T23:22:05.098Z,100826.19
2022-08-12T23:24:55.829Z,100821.19
2022-08-12T23:27:52.315Z,100819.16
2022-08-12T23:30:31.255Z,100810.22
2022-08-12T23:33:13.183Z,100807.94
2022-08-12T23:35:59.232Z,100807.84
2022-08-12T23:38:33.009Z,100810.25
2022-08-12T23:41:02.442Z,100802.50
2022-08-12T23:43:39.181Z,100805.38
2022-08-12T23:46:12.533Z,100799.16
2022-08-12T23:48:47.860Z,100803.53
2022-08-12T23:51:25.675Z,100800.63
2022-08-12T23:53:56.451Z,100795.03
2022-08-12T23:56:27.561Z,100803.78
2022-08-12T23:58:58.703Z,100798.16
